Time;durP1;ratioP1;P1;durP2;ratioP2;P2;SDS_P1;SDS_P2;PMS_P1;PMS_P2;Temp;Humidity;BMP_temperature;BMP_pressure;BME280_temperature;BME280_humidity;BME280_pressure;Samples;Min_cycle;Max_cycle;Signal;HPM_P1;HPM_P2
2021/03/17 00:01:46;;;;;;;4.23;3.03;;;;;;;;;;5033570;28;20204;-69
2021/03/17 00:04:11;;;;;;;5.00;2.37;;;;;;;;;;5027180;28;20213;-70
2021/03/17 00:06:37;;;;;;;4.43;2.80;;;;;;;;;;5033091;28;20175;-70
2021/03/17 00:09:03;;;;;;;5.00;2.90;;;;;;;;;;5026179;28;20182;-70
2021/03/17 00:11:29;;;;;;;4.43;2.67;;;;;;;;;;5034207;28;20529;-70
2021/03/17 00:13:54;;;;;;;3.63;2.83;;;;;;;;;;5030472;28;20185;-70
2021/03/17 00:16:20;;;;;;;4.80;2.97;;;;;;;;;;5037505;28;20186;-70
2021/03/17 00:18:45;;;;;;;4.50;2.93;;;;;;;;;;5038175;28;20598;-70
2021/03/17 00:21:10;;;;;;;4.20;2.70;;;;;;;;;;5028272;28;20641;-70
2021/03/17 00:23:36;;;;;;;4.70;3.30;;;;;;;;;;5041913;28;20681;-70
2021/03/17 00:26:01;;;;;;;4.73;2.63;;;;;;;;;;5033572;28;20187;-70
2021/03/17 00:28:26;;;;;;;4.07;2.80;;;;;;;;;;5042827;28;20216;-70
2021/03/17 00:30:52;;;;;;;5.17;3.00;;;;;;;;;;5026245;28;20747;-70
2021/03/17 00:33:17;;;;;;;4.87;2.63;;;;;;;;;;5036500;28;20250;-70
2021/03/17 00:35:43;;;;;;;5.27;3.37;;;;;;;;;;5028607;28;20209;-70
2021/03/17 00:38:08;;;;;;;5.03;3.33;;;;;;;;;;5038709;28;20188;-70
2021/03/17 00:40:36;;;;;;;6.00;3.47;;;;;;;;;;5028365;28;20189;-70
2021/03/17 00:43:02;;;;;;;3.83;3.27;;;;;;;;;;5041262;28;20190;-70
2021/03/17 00:45:28;;;;;;;5.00;2.93;;;;;;;;;;5028757;28;20185;-70
2021/03/17 00:47:54;;;;;;;3.67;3.00;;;;;;;;;;5041242;28;20224;-70
2021/03/17 00:50:20;;;;;;;5.73;3.30;;;;;;;;;;5036910;28;20224;-70
2021/03/17 00:52:46;;;;;;;3.77;2.97;;;;;;;;;;5032955;28;20204;-70
2021/03/17 00:55:12;;;;;;;4.80;3.20;;;;;;;;;;5035147;28;20178;-70
2021/03/17 00:57:39;;;;;;;4.03;2.93;;;;;;;;;;5029286;28;20197;-70
2021/03/17 01:00:07;;;;;;;4.87;2.87;;;;;;;;;;5033598;28;20186;-70
2021/03/17 01:02:33;;;;;;;4.30;3.40;;;;;;;;;;5030567;28;20197;-70
2021/03/17 01:04:58;;;;;;;5.40;3.07;;;;;;;;;;5036736;28;20206;-70
2021/03/17 01:07:23;;;;;;;5.07;3.23;;;;;;;;;;5025518;28;20240;-70
2021/03/17 01:09:49;;;;;;;4.47;3.40;;;;;;;;;;5038674;28;20216;-70
2021/03/17 01:12:14;;;;;;;4.70;3.80;;;;;;;;;;5027199;28;20292;-70
2021/03/17 01:14:40;;;;;;;6.33;3.87;;;;;;;;;;5034154;28;20349;-70
2021/03/17 01:17:06;;;;;;;6.67;4.00;;;;;;;;;;5021971;28;20228;-70
2021/03/17 01:19:32;;;;;;;5.80;4.10;;;;;;;;;;5036983;28;20664;-70
2021/03/17 01:21:57;;;;;;;5.93;3.77;;;;;;;;;;5035520;28;20206;-70
2021/03/17 01:24:23;;;;;;;5.43;3.83;;;;;;;;;;5025038;28;20201;-71
2021/03/17 01:26:48;;;;;;;5.50;3.80;;;;;;;;;;5032785;28;20296;-70
2021/03/17 01:29:13;;;;;;;5.13;4.43;;;;;;;;;;5030823;28;20653;-70
2021/03/17 01:31:39;;;;;;;5.00;4.20;;;;;;;;;;5037733;28;20240;-70
2021/03/17 01:34:04;;;;;;;6.73;4.30;;;;;;;;;;5026324;28;20197;-70
2021/03/17 01:36:29;;;;;;;4.23;3.63;;;;;;;;;;5043766;28;20235;-70
2021/03/17 01:38:55;;;;;;;6.43;4.30;;;;;;;;;;5033334;28;20216;-70
2021/03/17 01:41:20;;;;;;;5.00;3.90;;;;;;;;;;5035364;28;20230;-70
2021/03/17 01:43:46;;;;;;;8.77;4.07;;;;;;;;;;5028422;28;20222;-70
2021/03/17 01:46:11;;;;;;;7.23;3.90;;;;;;;;;;5041596;28;20542;-70
2021/03/17 01:48:37;;;;;;;5.07;3.50;;;;;;;;;;5028174;28;20185;-70
2021/03/17 01:51:03;;;;;;;7.03;4.20;;;;;;;;;;5043254;28;20185;-70
2021/03/17 01:53:31;;;;;;;5.13;3.77;;;;;;;;;;5034374;28;20182;-70
2021/03/17 01:55:57;;;;;;;5.17;4.03;;;;;;;;;;5034101;28;20185;-70
2021/03/17 01:58:23;;;;;;;4.70;3.53;;;;;;;;;;5036699;28;20186;-70
2021/03/17 02:00:49;;;;;;;3.97;3.40;;;;;;;;;;5033061;28;20566;-70
2021/03/17 02:03:15;;;;;;;5.53;3.70;;;;;;;;;;5037371;28;20639;-70
2021/03/17 02:05:45;;;;;;;4.77;3.50;;;;;;;;;;5032156;28;20185;-70
2021/03/17 02:08:14;;;;;;;5.93;3.37;;;;;;;;;;5036790;28;20261;-70
2021/03/17 02:10:40;;;;;;;4.63;3.70;;;;;;;;;;5024940;28;20181;-70
2021/03/17 02:13:40;;;;;;;5.50;3.50;;;;;;;;;;5035762;28;20672;-69
2021/03/17 02:16:30;;;;;;;3.80;3.50;;;;;;;;;;5031517;28;20193;-70
2021/03/17 02:19:37;;;;;;;4.73;3.23;;;;;;;;;;5038794;28;20203;-70
2021/03/17 02:22:05;;;;;;;3.97;3.33;;;;;;;;;;5023587;28;20181;-70
2021/03/17 02:24:48;;;;;;;6.03;4.03;;;;;;;;;;5041478;28;20201;-70
2021/03/17 02:27:55;;;;;;;5.63;3.60;;;;;;;;;;5033797;28;20240;-70
2021/03/17 02:30:59;;;;;;;6.17;3.43;;;;;;;;;;5032693;28;20197;-70
2021/03/17 02:33:34;;;;;;;3.63;2.87;;;;;;;;;;4999572;28;20198;-70
2021/03/17 02:36:09;;;;;;;6.63;3.50;;;;;;;;;;4994461;28;20270;-70
2021/03/17 02:38:37;;;;;;;6.10;3.43;;;;;;;;;;5016613;28;20240;-70
2021/03/17 02:41:05;;;;;;;6.17;3.77;;;;;;;;;;5034435;28;20201;-70
2021/03/17 02:43:33;;;;;;;6.37;4.00;;;;;;;;;;5030361;28;20219;-70
2021/03/17 02:46:13;;;;;;;5.67;4.07;;;;;;;;;;5043666;28;20543;-70
2021/03/17 02:48:44;;;;;;;8.80;4.50;;;;;;;;;;5031023;28;20208;-70
2021/03/17 02:51:19;;;;;;;6.30;4.20;;;;;;;;;;5040128;28;20189;-70
2021/03/17 02:53:45;;;;;;;9.50;4.60;;;;;;;;;;5033185;28;20711;-70
2021/03/17 02:56:13;;;;;;;8.03;4.33;;;;;;;;;;5039937;28;20185;-70
2021/03/17 02:58:43;;;;;;;10.20;4.73;;;;;;;;;;5032796;28;20672;-70
2021/03/17 03:01:11;;;;;;;4.50;3.70;;;;;;;;;;5042959;28;20535;-69
2021/03/17 03:03:38;;;;;;;7.13;4.23;;;;;;;;;;5030358;28;20682;-70
2021/03/17 03:06:05;;;;;;;6.43;4.00;;;;;;;;;;5049470;28;20193;-70
2021/03/17 03:08:34;;;;;;;10.73;3.80;;;;;;;;;;5033720;28;20178;-69
2021/03/17 03:11:00;;;;;;;6.83;3.33;;;;;;;;;;5038144;28;20231;-69
2021/03/17 03:13:27;;;;;;;6.40;3.57;;;;;;;;;;5032135;28;20190;-70
2021/03/17 03:15:54;;;;;;;3.80;2.20;;;;;;;;;;5040386;28;20181;-70
2021/03/17 03:18:21;;;;;;;6.17;3.30;;;;;;;;;;5030017;28;20256;-70
2021/03/17 03:20:47;;;;;;;4.13;2.80;;;;;;;;;;5045890;28;20641;-70
2021/03/17 03:23:12;;;;;;;6.20;2.90;;;;;;;;;;5028596;28;20223;-69
2021/03/17 03:25:38;;;;;;;4.63;2.50;;;;;;;;;;5043122;28;20664;-70
2021/03/17 03:28:11;;;;;;;6.60;2.90;;;;;;;;;;5041577;28;20271;-70
2021/03/17 03:30:39;;;;;;;5.23;2.83;;;;;;;;;;5029620;28;20637;-70
2021/03/17 03:33:06;;;;;;;4.07;2.77;;;;;;;;;;5040970;28;20189;-70
2021/03/17 03:35:31;;;;;;;4.80;2.40;;;;;;;;;;5034367;28;20323;-70
2021/03/17 03:37:57;;;;;;;5.83;2.70;;;;;;;;;;5041178;28;20275;-70
2021/03/17 03:40:22;;;;;;;3.80;2.70;;;;;;;;;;5033289;28;20506;-70
2021/03/17 03:42:49;;;;;;;5.03;2.93;;;;;;;;;;5039994;28;20777;-70
2021/03/17 03:45:17;;;;;;;4.17;2.70;;;;;;;;;;5032132;28;20660;-70
2021/03/17 03:47:44;;;;;;;7.57;2.40;;;;;;;;;;5039600;28;20227;-70
2021/03/17 03:50:13;;;;;;;6.13;2.10;;;;;;;;;;5034828;28;20196;-71
2021/03/17 03:53:07;;;;;;;4.30;2.30;;;;;;;;;;5040801;28;20279;-70
2021/03/17 03:56:20;;;;;;;5.13;2.33;;;;;;;;;;5030886;28;20194;-70
2021/03/17 03:59:10;;;;;;;4.37;2.40;;;;;;;;;;5036921;28;20672;-70
2021/03/17 04:01:52;;;;;;;5.37;2.60;;;;;;;;;;5030610;28;20194;-70
2021/03/17 04:04:19;;;;;;;5.30;2.70;;;;;;;;;;5041037;28;20607;-70
2021/03/17 04:06:48;;;;;;;5.00;2.30;;;;;;;;;;5033137;28;20243;-71
2021/03/17 04:09:16;;;;;;;6.40;2.07;;;;;;;;;;5034043;28;20178;-70
2021/03/17 04:11:43;;;;;;;4.33;2.17;;;;;;;;;;5029428;28;20193;-70
2021/03/17 04:14:09;;;;;;;7.80;2.67;;;;;;;;;;5043133;28;20196;-70
2021/03/17 04:16:36;;;;;;;4.33;2.23;;;;;;;;;;5028112;28;20177;-70
2021/03/17 04:19:02;;;;;;;6.77;2.23;;;;;;;;;;5031645;28;20668;-70
2021/03/17 04:21:31;;;;;;;5.60;2.33;;;;;;;;;;5025791;28;20185;-70
2021/03/17 04:23:59;;;;;;;5.73;2.30;;;;;;;;;;5037525;28;20256;-70
2021/03/17 04:26:26;;;;;;;4.53;2.20;;;;;;;;;;5030650;28;20200;-70
2021/03/17 04:28:54;;;;;;;4.30;2.47;;;;;;;;;;5038240;28;20193;-71
2021/03/17 04:31:21;;;;;;;5.37;2.50;;;;;;;;;;5032328;28;20272;-70
2021/03/17 04:33:47;;;;;;;4.20;2.37;;;;;;;;;;5034246;28;20178;-70
2021/03/17 04:36:13;;;;;;;7.50;2.50;;;;;;;;;;5038274;28;20190;-70
2021/03/17 04:38:40;;;;;;;8.57;2.87;;;;;;;;;;5030708;28;20197;-70
2021/03/17 04:41:06;;;;;;;6.03;2.37;;;;;;;;;;5030814;28;20603;-70
2021/03/17 04:43:33;;;;;;;9.33;2.60;;;;;;;;;;5031056;28;20291;-70
2021/03/17 04:46:03;;;;;;;4.07;2.27;;;;;;;;;;5041225;28;20185;-70
2021/03/17 04:48:29;;;;;;;4.63;2.47;;;;;;;;;;5030077;28;20644;-71
2021/03/17 04:50:55;;;;;;;5.90;2.57;;;;;;;;;;5035461;28;20193;-71
2021/03/17 04:53:21;;;;;;;3.93;1.93;;;;;;;;;;5029124;28;20271;-71
2021/03/17 04:55:47;;;;;;;5.90;2.13;;;;;;;;;;5039724;28;20224;-71
2021/03/17 04:58:16;;;;;;;5.20;2.20;;;;;;;;;;5030073;28;20567;-71
2021/03/17 05:00:45;;;;;;;6.23;2.50;;;;;;;;;;5030907;28;20198;-70
2021/03/17 05:03:12;;;;;;;11.00;2.40;;;;;;;;;;5030273;28;22625;-70
2021/03/17 05:05:39;;;;;;;6.30;2.00;;;;;;;;;;5045619;28;20186;-70
2021/03/17 05:08:07;;;;;;;5.30;2.13;;;;;;;;;;5030952;28;20178;-70
2021/03/17 05:10:34;;;;;;;8.13;2.30;;;;;;;;;;5041942;28;20197;-70
2021/03/17 05:13:00;;;;;;;5.10;2.37;;;;;;;;;;5040293;28;20578;-70
2021/03/17 05:15:25;;;;;;;6.83;2.10;;;;;;;;;;5028152;28;20186;-70
2021/03/17 05:17:52;;;;;;;7.80;2.27;;;;;;;;;;5037463;28;20205;-70
2021/03/17 05:20:19;;;;;;;8.00;2.07;;;;;;;;;;5032283;28;20239;-70
2021/03/17 05:22:47;;;;;;;7.73;2.37;;;;;;;;;;5036758;28;20209;-70
2021/03/17 05:25:14;;;;;;;7.80;2.13;;;;;;;;;;5033338;28;20214;-71
2021/03/17 05:27:39;;;;;;;9.00;2.13;;;;;;;;;;5036937;28;20227;-70
2021/03/17 05:30:10;;;;;;;6.23;2.20;;;;;;;;;;5028462;28;20242;-70
2021/03/17 05:32:39;;;;;;;10.00;2.20;;;;;;;;;;5035262;28;20269;-70
2021/03/17 05:35:07;;;;;;;9.40;2.27;;;;;;;;;;5026209;28;20181;-70
2021/03/17 05:37:32;;;;;;;9.27;2.10;;;;;;;;;;5039864;28;20252;-70
2021/03/17 05:39:58;;;;;;;5.93;2.10;;;;;;;;;;5037873;28;20645;-70
2021/03/17 05:42:24;;;;;;;7.97;2.10;;;;;;;;;;5031989;28;21274;-70
2021/03/17 05:44:51;;;;;;;5.87;2.47;;;;;;;;;;5033272;28;20202;-70
2021/03/17 05:47:18;;;;;;;10.17;2.00;;;;;;;;;;5025387;28;20185;-70
2021/03/17 05:49:45;;;;;;;9.03;2.57;;;;;;;;;;5032838;28;20232;-70
2021/03/17 05:52:10;;;;;;;9.57;2.17;;;;;;;;;;5029650;28;20177;-70
2021/03/17 05:54:35;;;;;;;7.63;1.90;;;;;;;;;;5037637;28;20178;-70
2021/03/17 05:57:02;;;;;;;6.50;2.07;;;;;;;;;;5028097;28;20185;-70
2021/03/17 05:59:29;;;;;;;5.00;2.17;;;;;;;;;;5035284;28;20185;-70
2021/03/17 06:01:55;;;;;;;4.83;2.70;;;;;;;;;;5025812;28;20199;-71
2021/03/17 06:04:21;;;;;;;8.03;2.73;;;;;;;;;;5031051;28;20605;-70
2021/03/17 06:06:48;;;;;;;7.03;3.03;;;;;;;;;;5027619;28;20185;-70
2021/03/17 06:09:16;;;;;;;8.47;2.67;;;;;;;;;;5037071;28;20585;-69
2021/03/17 06:11:42;;;;;;;8.83;2.40;;;;;;;;;;5025986;28;20193;-69
2021/03/17 06:14:12;;;;;;;9.63;2.57;;;;;;;;;;5034930;28;20180;-70
2021/03/17 06:16:41;;;;;;;9.77;2.70;;;;;;;;;;5025293;28;20212;-70
2021/03/17 06:19:08;;;;;;;4.30;2.33;;;;;;;;;;5042387;28;20192;-70
2021/03/17 06:21:33;;;;;;;8.80;2.60;;;;;;;;;;5038614;28;20193;-70
2021/03/17 06:23:59;;;;;;;6.10;2.60;;;;;;;;;;4332614;28;10000803;-70
2021/03/17 06:26:24;;;;;;;10.70;3.33;;;;;;;;;;5035933;28;20508;-71
2021/03/17 06:28:50;;;;;;;6.83;2.87;;;;;;;;;;5029241;28;20192;-70
2021/03/17 06:31:16;;;;;;;13.30;3.50;;;;;;;;;;5036879;28;20216;-70
2021/03/17 06:33:42;;;;;;;6.93;2.83;;;;;;;;;;5034197;28;20193;-70
2021/03/17 06:36:16;;;;;;;11.67;3.80;;;;;;;;;;5032778;28;20351;-69
2021/03/17 06:38:43;;;;;;;9.07;2.60;;;;;;;;;;5025768;28;20217;-69
2021/03/17 06:41:09;;;;;;;6.53;2.57;;;;;;;;;;5038353;28;20198;-69
2021/03/17 06:43:48;;;;;;;6.60;2.53;;;;;;;;;;5031058;28;20200;-69
2021/03/17 06:46:17;;;;;;;7.33;3.43;;;;;;;;;;5028796;28;20299;-70
2021/03/17 06:48:42;;;;;;;10.93;3.00;;;;;;;;;;5029935;28;20186;-70
2021/03/17 06:51:10;;;;;;;10.57;2.70;;;;;;;;;;5031847;28;20728;-70
2021/03/17 06:53:40;;;;;;;7.77;2.80;;;;;;;;;;5030485;28;20622;-71
2021/03/17 06:56:26;;;;;;;7.23;2.60;;;;;;;;;;5041236;28;20264;-69
2021/03/17 06:58:59;;;;;;;12.07;2.83;;;;;;;;;;5037051;28;20536;-70
2021/03/17 07:01:37;;;;;;;7.93;3.37;;;;;;;;;;5037438;28;20194;-69
2021/03/17 07:04:13;;;;;;;5.90;3.13;;;;;;;;;;5027443;28;20573;-69
2021/03/17 07:06:41;;;;;;;5.67;2.50;;;;;;;;;;5040873;28;20671;-69
2021/03/17 07:09:27;;;;;;;5.83;2.33;;;;;;;;;;5031324;28;20182;-69
2021/03/17 07:12:06;;;;;;;8.33;3.23;;;;;;;;;;5036197;28;20189;-69
2021/03/17 07:14:39;;;;;;;6.90;2.50;;;;;;;;;;4678745;28;10000092;-69
2021/03/17 07:17:28;;;;;;;6.17;2.20;;;;;;;;;;5032026;28;20549;-69
2021/03/17 07:19:53;;;;;;;6.87;1.97;;;;;;;;;;5024254;28;20218;-69
2021/03/17 07:22:20;;;;;;;5.80;1.97;;;;;;;;;;5034092;28;20260;-69
2021/03/17 07:24:47;;;;;;;7.80;2.00;;;;;;;;;;5030544;28;20216;-69
2021/03/17 07:27:21;;;;;;;6.73;2.03;;;;;;;;;;5018890;28;20281;-70
2021/03/17 07:30:02;;;;;;;5.97;1.57;;;;;;;;;;5039474;28;20258;-69
2021/03/17 07:32:48;;;;;;;6.03;1.80;;;;;;;;;;5023098;28;20190;-69
2021/03/17 07:35:44;;;;;;;7.57;1.50;;;;;;;;;;5030132;28;20690;-70
2021/03/17 07:38:12;;;;;;;6.37;1.70;;;;;;;;;;5019699;28;20216;-70
2021/03/17 07:40:40;;;;;;;4.17;1.67;;;;;;;;;;5032061;28;20182;-70
2021/03/17 07:43:07;;;;;;;3.03;1.33;;;;;;;;;;5026419;28;20218;-70
2021/03/17 07:45:34;;;;;;;5.07;1.60;;;;;;;;;;5034487;28;20558;-70
2021/03/17 07:48:08;;;;;;;4.47;1.57;;;;;;;;;;5022537;28;20186;-70
2021/03/17 07:50:35;;;;;;;6.30;1.80;;;;;;;;;;5032113;28;20219;-70
2021/03/17 07:53:04;;;;;;;5.77;1.63;;;;;;;;;;5022914;28;20634;-70
2021/03/17 07:55:32;;;;;;;5.80;1.53;;;;;;;;;;5037370;28;20596;-70
2021/03/17 07:58:00;;;;;;;7.47;1.63;;;;;;;;;;5023636;28;20601;-70
2021/03/17 08:00:25;;;;;;;5.97;1.53;;;;;;;;;;5032314;28;20227;-69
2021/03/17 08:02:55;;;;;;;8.10;1.63;;;;;;;;;;5019402;28;20281;-69
2021/03/17 08:05:21;;;;;;;4.20;1.40;;;;;;;;;;5031845;28;20209;-69
2021/03/17 08:07:47;;;;;;;5.40;1.20;;;;;;;;;;5019721;28;20826;-69
2021/03/17 08:10:13;;;;;;;6.10;1.30;;;;;;;;;;5037229;28;20657;-70
2021/03/17 08:12:41;;;;;;;8.50;1.80;;;;;;;;;;5020888;28;20273;-70
2021/03/17 08:15:07;;;;;;;7.73;1.30;;;;;;;;;;5032482;28;20217;-70
2021/03/17 08:17:35;;;;;;;3.67;1.30;;;;;;;;;;5033268;28;20173;-70
2021/03/17 08:20:16;;;;;;;3.23;1.10;;;;;;;;;;5022634;28;20189;-70
2021/03/17 08:22:42;;;;;;;4.17;1.00;;;;;;;;;;5034129;28;20173;-70
2021/03/17 08:25:12;;;;;;;11.50;1.80;;;;;;;;;;5019351;28;20252;-70
2021/03/17 08:27:37;;;;;;;5.63;1.30;;;;;;;;;;5033021;28;20619;-70
2021/03/17 08:30:05;;;;;;;9.13;1.10;;;;;;;;;;5029478;28;20196;-70
2021/03/17 08:32:54;;;;;;;8.30;1.27;;;;;;;;;;5034084;28;20268;-70
2021/03/17 08:35:19;;;;;;;5.93;1.10;;;;;;;;;;5023507;28;20260;-70
2021/03/17 08:37:54;;;;;;;6.93;1.73;;;;;;;;;;5037249;28;20181;-70
2021/03/17 08:40:28;;;;;;;6.83;1.60;;;;;;;;;;5025407;28;20193;-70
2021/03/17 08:42:54;;;;;;;7.20;1.17;;;;;;;;;;5029439;28;20638;-70
2021/03/17 08:45:21;;;;;;;8.07;1.10;;;;;;;;;;5024873;28;20218;-70
2021/03/17 08:47:48;;;;;;;9.50;1.10;;;;;;;;;;5035354;28;20209;-70
2021/03/17 08:50:26;;;;;;;5.33;0.93;;;;;;;;;;5024349;28;20186;-70
2021/03/17 08:52:53;;;;;;;7.63;1.70;;;;;;;;;;5037559;28;20177;-70
2021/03/17 08:55:35;;;;;;;7.53;1.20;;;;;;;;;;5024145;28;20451;-70
2021/03/17 08:58:23;;;;;;;8.33;1.30;;;;;;;;;;5031682;28;20258;-70
2021/03/17 09:00:51;;;;;;;8.00;1.20;;;;;;;;;;5024199;28;20209;-70
2021/03/17 09:03:32;;;;;;;7.50;0.97;;;;;;;;;;5032228;28;20189;-70
2021/03/17 09:06:10;;;;;;;7.50;1.10;;;;;;;;;;5023915;28;20199;-69
2021/03/17 09:09:02;;;;;;;9.73;1.37;;;;;;;;;;5033802;28;20739;-69
2021/03/17 09:11:30;;;;;;;7.50;1.00;;;;;;;;;;5025408;28;20610;-70
2021/03/17 09:14:06;;;;;;;5.53;1.10;;;;;;;;;;5036350;28;20220;-69
2021/03/17 09:16:37;;;;;;;10.30;1.20;;;;;;;;;;5019050;28;20221;-69
2021/03/17 09:19:07;;;;;;;4.17;1.07;;;;;;;;;;5033168;28;20267;-69
2021/03/17 09:21:35;;;;;;;8.57;1.20;;;;;;;;;;5026491;28;20190;-69
2021/03/17 09:24:00;;;;;;;7.07;0.97;;;;;;;;;;5042328;28;20205;-69
2021/03/17 09:26:27;;;;;;;6.13;0.90;;;;;;;;;;5022738;28;20209;-69
2021/03/17 09:28:53;;;;;;;6.00;1.10;;;;;;;;;;5026093;28;20568;-69
2021/03/17 09:31:18;;;;;;;9.80;1.53;;;;;;;;;;5025636;28;20465;-69
2021/03/17 09:33:44;;;;;;;4.13;0.67;;;;;;;;;;5035876;28;20665;-71
2021/03/17 09:36:19;;;;;;;9.97;1.00;;;;;;;;;;5033106;28;20288;-69
2021/03/17 09:38:48;;;;;;;3.33;0.80;;;;;;;;;;5031426;28;20184;-69
2021/03/17 09:41:29;;;;;;;10.10;2.10;;;;;;;;;;5033211;28;20177;-69
2021/03/17 09:44:03;;;;;;;6.00;1.43;;;;;;;;;;5028773;28;20247;-69
2021/03/17 09:46:32;;;;;;;6.57;1.17;;;;;;;;;;5034589;28;20196;-69
2021/03/17 09:49:04;;;;;;;7.43;0.80;;;;;;;;;;5022720;28;20190;-69
2021/03/17 09:51:35;;;;;;;5.30;0.80;;;;;;;;;;5033343;28;20720;-69
2021/03/17 09:54:03;;;;;;;3.77;0.63;;;;;;;;;;5022800;28;20181;-69
2021/03/17 09:56:36;;;;;;;6.20;1.33;;;;;;;;;;5034540;28;20657;-69
2021/03/17 09:59:26;;;;;;;4.00;0.87;;;;;;;;;;5025673;28;20570;-69
2021/03/17 10:02:04;;;;;;;4.20;0.70;;;;;;;;;;5033032;28;20181;-69
2021/03/17 10:04:50;;;;;;;6.07;0.87;;;;;;;;;;5020261;28;20637;-69
2021/03/17 10:07:27;;;;;;;11.90;1.07;;;;;;;;;;5025881;28;20192;-69
2021/03/17 10:09:54;;;;;;;5.80;1.00;;;;;;;;;;5022675;28;22950;-69
2021/03/17 10:12:28;;;;;;;8.83;1.10;;;;;;;;;;5030805;28;20197;-69
2021/03/17 10:14:57;;;;;;;6.60;0.70;;;;;;;;;;5027175;28;20539;-69
2021/03/17 10:17:28;;;;;;;5.20;0.97;;;;;;;;;;5035418;28;20214;-70
2021/03/17 10:20:15;;;;;;;11.50;1.00;;;;;;;;;;5029037;28;20208;-70
2021/03/17 10:22:41;;;;;;;8.10;1.40;;;;;;;;;;5039807;28;20640;-69
2021/03/17 10:25:11;;;;;;;9.23;0.80;;;;;;;;;;5022610;28;20305;-69
2021/03/17 10:27:45;;;;;;;10.17;1.00;;;;;;;;;;5038312;28;20242;-69
2021/03/17 10:30:17;;;;;;;5.50;0.87;;;;;;;;;;5025754;28;20271;-69
2021/03/17 10:32:43;;;;;;;5.77;0.90;;;;;;;;;;5032333;28;20189;-69
2021/03/17 10:35:12;;;;;;;6.23;0.70;;;;;;;;;;5021940;28;20186;-69
2021/03/17 10:37:38;;;;;;;9.20;1.07;;;;;;;;;;5032052;28;20188;-69
2021/03/17 10:40:15;;;;;;;7.20;1.00;;;;;;;;;;5023923;28;20197;-70
2021/03/17 10:42:47;;;;;;;4.97;1.00;;;;;;;;;;5036697;28;20229;-69
2021/03/17 10:45:19;;;;;;;4.80;0.83;;;;;;;;;;5023032;28;20731;-70
2021/03/17 10:47:45;;;;;;;5.50;0.73;;;;;;;;;;5029953;28;20217;-70
2021/03/17 10:50:35;;;;;;;8.33;1.40;;;;;;;;;;5032994;28;20281;-68
2021/03/17 10:53:13;;;;;;;7.40;1.27;;;;;;;;;;5031804;28;20779;-70
2021/03/17 10:55:38;;;;;;;4.73;0.70;;;;;;;;;;5023344;28;20218;-70
2021/03/17 10:58:16;;;;;;;5.03;1.07;;;;;;;;;;5034657;28;20190;-70
2021/03/17 11:00:45;;;;;;;6.93;1.20;;;;;;;;;;5026796;28;20641;-70
2021/03/17 11:03:39;;;;;;;7.07;1.00;;;;;;;;;;5030589;28;20931;-70
2021/03/17 11:06:20;;;;;;;5.63;0.93;;;;;;;;;;5023220;28;20240;-70
2021/03/17 11:09:01;;;;;;;7.90;0.90;;;;;;;;;;5033620;28;20588;-69
2021/03/17 11:11:27;;;;;;;8.53;0.93;;;;;;;;;;5025610;28;20182;-70
2021/03/17 11:13:52;;;;;;;7.53;0.97;;;;;;;;;;5037758;28;20195;-70
2021/03/17 11:16:36;;;;;;;5.20;0.70;;;;;;;;;;5028710;28;20276;-70
2021/03/17 11:19:09;;;;;;;7.43;0.70;;;;;;;;;;5033892;28;20273;-69
2021/03/17 11:21:36;;;;;;;5.13;1.43;;;;;;;;;;5035493;28;20657;-70
2021/03/17 11:24:05;;;;;;;2.53;0.50;;;;;;;;;;5027429;28;20245;-69
2021/03/17 11:26:31;;;;;;;6.93;1.03;;;;;;;;;;5032087;28;20186;-70
2021/03/17 11:29:00;;;;;;;10.23;0.83;;;;;;;;;;5027452;28;20785;-69
2021/03/17 11:31:34;;;;;;;5.33;0.90;;;;;;;;;;5031710;28;20209;-70
2021/03/17 11:34:00;;;;;;;4.37;0.70;;;;;;;;;;5023312;28;20217;-70
2021/03/17 11:36:26;;;;;;;7.37;0.90;;;;;;;;;;5030435;28;20824;-69
2021/03/17 11:38:52;;;;;;;5.53;0.83;;;;;;;;;;5024849;28;20579;-69
2021/03/17 11:41:18;;;;;;;6.93;0.67;;;;;;;;;;5026438;28;20190;-70
2021/03/17 11:43:44;;;;;;;7.83;1.30;;;;;;;;;;5020574;28;20242;-69
2021/03/17 11:46:10;;;;;;;6.53;1.20;;;;;;;;;;5028941;28;20194;-69
2021/03/17 11:48:35;;;;;;;5.75;0.98;;;;;;;;;;5021138;28;20212;-70
2021/03/17 11:51:04;;;;;;;3.45;0.80;;;;;;;;;;5036671;28;20185;-69
2021/03/17 11:53:30;;;;;;;10.47;1.00;;;;;;;;;;5028888;28;20189;-70
2021/03/17 11:55:57;;;;;;;8.27;0.90;;;;;;;;;;4700535;28;10001137;-69
2021/03/17 11:58:23;;;;;;;4.33;1.03;;;;;;;;;;5033699;28;21005;-69
2021/03/17 12:00:48;;;;;;;4.27;1.00;;;;;;;;;;5025753;28;20728;-69
2021/03/17 12:03:14;;;;;;;3.57;0.80;;;;;;;;;;5034233;28;20264;-69
2021/03/17 12:05:41;;;;;;;7.40;0.83;;;;;;;;;;5030307;28;20205;-69
2021/03/17 12:08:06;;;;;;;5.50;1.07;;;;;;;;;;5032894;28;20228;-69
2021/03/17 12:10:32;;;;;;;9.83;1.20;;;;;;;;;;5029044;28;20581;-69
2021/03/17 12:12:59;;;;;;;8.00;1.00;;;;;;;;;;5031917;28;20242;-70
2021/03/17 12:15:25;;;;;;;4.90;0.60;;;;;;;;;;5027930;28;20276;-69
2021/03/17 12:17:52;;;;;;;4.43;0.67;;;;;;;;;;5036179;28;20189;-69
2021/03/17 12:20:19;;;;;;;2.57;0.73;;;;;;;;;;5026431;28;20578;-69
2021/03/17 12:22:44;;;;;;;4.77;0.80;;;;;;;;;;5038990;28;20674;-70
2021/03/17 12:25:11;;;;;;;5.43;0.70;;;;;;;;;;5021984;28;20205;-69
2021/03/17 12:27:38;;;;;;;4.77;0.73;;;;;;;;;;5033485;28;20223;-70
2021/03/17 12:30:09;;;;;;;6.87;0.57;;;;;;;;;;5034405;28;20186;-69
2021/03/17 12:32:35;;;;;;;4.03;0.60;;;;;;;;;;5024688;28;20190;-69
2021/03/17 12:35:00;;;;;;;5.90;0.53;;;;;;;;;;5032989;28;20224;-70
2021/03/17 12:37:26;;;;;;;3.87;0.70;;;;;;;;;;5024783;28;20201;-68
2021/03/17 12:39:51;;;;;;;4.17;0.80;;;;;;;;;;5036156;28;20222;-69
2021/03/17 12:42:16;;;;;;;6.17;0.70;;;;;;;;;;5025601;28;20229;-69
2021/03/17 12:44:42;;;;;;;5.57;0.73;;;;;;;;;;5032042;28;20870;-69
2021/03/17 12:47:10;;;;;;;3.63;0.60;;;;;;;;;;5025987;28;20214;-69
2021/03/17 12:49:36;;;;;;;3.80;0.53;;;;;;;;;;5030837;28;20193;-69
2021/03/17 12:52:02;;;;;;;5.23;0.63;;;;;;;;;;5029902;28;20197;-69
2021/03/17 12:54:28;;;;;;;5.53;0.70;;;;;;;;;;5035478;28;20200;-69
2021/03/17 12:56:53;;;;;;;3.17;0.47;;;;;;;;;;5030489;28;20181;-69
2021/03/17 12:59:19;;;;;;;2.13;0.50;;;;;;;;;;5031437;28;20218;-70
2021/03/17 13:01:44;;;;;;;6.40;0.80;;;;;;;;;;5031771;28;20259;-69
2021/03/17 13:04:09;;;;;;;4.78;0.65;;;;;;;;;;5023371;28;20240;-70
2021/03/17 13:06:35;;;;;;;5.72;0.93;;;;;;;;;;5028792;28;20186;-69
2021/03/17 13:09:03;;;;;;;4.00;0.60;;;;;;;;;;5022517;28;20197;-72
2021/03/17 13:11:29;;;;;;;3.90;0.60;;;;;;;;;;5030266;28;20320;-69
2021/03/17 13:13:55;;;;;;;4.07;0.60;;;;;;;;;;5025380;28;20285;-69
2021/03/17 13:16:21;;;;;;;4.70;0.40;;;;;;;;;;5027131;28;20186;-70
2021/03/17 13:18:48;;;;;;;4.93;0.60;;;;;;;;;;5022664;28;20594;-70
2021/03/17 13:21:13;;;;;;;1.80;0.40;;;;;;;;;;5030068;28;20196;-70
2021/03/17 13:23:39;;;;;;;2.70;0.53;;;;;;;;;;5026236;28;20657;-69
2021/03/17 13:26:04;;;;;;;4.63;0.80;;;;;;;;;;5033967;28;20184;-69
2021/03/17 13:28:29;;;;;;;5.23;0.67;;;;;;;;;;5022433;28;20186;-70
2021/03/17 13:30:55;;;;;;;4.23;0.50;;;;;;;;;;5029918;28;20189;-70
2021/03/17 13:33:20;;;;;;;3.13;0.40;;;;;;;;;;5030710;28;20193;-70
2021/03/17 13:35:45;;;;;;;3.67;0.57;;;;;;;;;;5022491;28;20714;-70
2021/03/17 13:38:13;;;;;;;1.63;0.40;;;;;;;;;;5028004;28;20289;-70
2021/03/17 13:40:38;;;;;;;5.13;0.70;;;;;;;;;;5023453;28;20200;-70
2021/03/17 13:43:05;;;;;;;6.17;0.77;;;;;;;;;;5030784;28;20237;-70
2021/03/17 13:45:31;;;;;;;2.53;0.50;;;;;;;;;;5025174;28;20228;-68
2021/03/17 13:47:57;;;;;;;2.63;0.50;;;;;;;;;;5025094;28;20273;-70
2021/03/17 13:50:24;;;;;;;4.67;0.70;;;;;;;;;;5022836;28;20238;-69
2021/03/17 13:52:51;;;;;;;4.80;0.70;;;;;;;;;;5040618;28;20189;-70
2021/03/17 13:55:16;;;;;;;2.47;0.40;;;;;;;;;;5021916;28;20201;-70
2021/03/17 13:57:42;;;;;;;3.83;0.60;;;;;;;;;;5038757;28;20225;-70
2021/03/17 14:00:11;;;;;;;3.17;0.70;;;;;;;;;;5025445;28;25172;-68
2021/03/17 14:02:36;;;;;;;4.65;0.50;;;;;;;;;;5033306;28;20236;-68
2021/03/17 14:05:02;;;;;;;1.85;0.50;;;;;;;;;;5029155;28;20260;-70
2021/03/17 14:07:27;;;;;;;2.33;0.40;;;;;;;;;;5028145;28;20186;-70
2021/03/17 14:09:53;;;;;;;2.93;0.60;;;;;;;;;;5033560;28;20231;-70
2021/03/17 14:12:18;;;;;;;3.70;0.60;;;;;;;;;;5027331;28;20236;-70
2021/03/17 14:14:43;;;;;;;2.05;0.38;;;;;;;;;;5035836;28;20186;-70
2021/03/17 14:17:09;;;;;;;2.83;0.50;;;;;;;;;;5024199;28;20201;-70
2021/03/17 14:19:34;;;;;;;2.95;0.47;;;;;;;;;;5035884;28;20177;-70
2021/03/17 14:22:00;;;;;;;6.53;0.60;;;;;;;;;;5023392;28;20217;-70
2021/03/17 14:24:25;;;;;;;5.57;0.50;;;;;;;;;;5033429;28;20657;-70
2021/03/17 14:26:51;;;;;;;1.53;0.50;;;;;;;;;;5024856;28;20686;-70
2021/03/17 14:29:16;;;;;;;5.05;0.70;;;;;;;;;;5035148;28;20185;-70
2021/03/17 14:31:42;;;;;;;2.17;0.50;;;;;;;;;;5021137;28;20178;-70
2021/03/17 14:34:07;;;;;;;4.10;0.53;;;;;;;;;;5033234;28;20252;-70
2021/03/17 14:36:32;;;;;;;2.23;0.40;;;;;;;;;;5034157;28;20523;-70
2021/03/17 14:38:58;;;;;;;4.33;0.80;;;;;;;;;;5027178;28;20189;-70
2021/03/17 14:41:23;;;;;;;4.10;0.50;;;;;;;;;;5036927;28;20628;-70
2021/03/17 14:43:49;;;;;;;1.23;0.30;;;;;;;;;;5030897;28;20250;-69
2021/03/17 14:46:14;;;;;;;4.87;0.57;;;;;;;;;;5038206;28;20314;-70
2021/03/17 14:48:40;;;;;;;2.53;0.50;;;;;;;;;;5029020;28;20189;-70
2021/03/17 14:51:05;;;;;;;2.77;0.80;;;;;;;;;;5040749;28;20190;-70
2021/03/17 14:53:30;;;;;;;4.20;0.70;;;;;;;;;;5025869;28;20637;-70
2021/03/17 14:55:55;;;;;;;4.40;0.30;;;;;;;;;;5039211;28;20336;-69